createdAt,value
2019-02-18T00:00:46.448Z,-1.48
2019-02-18T00:03:51.706Z,-1.24
2019-02-18T00:06:56.906Z,-1.27
2019-02-18T00:10:02.102Z,-1.43
2019-02-18T00:13:07.319Z,-1.67
2019-02-18T00:16:12.479Z,-1.79
2019-02-18T00:19:17.765Z,-1.72
2019-02-18T00:22:22.932Z,-1.87
2019-02-18T00:25:28.064Z,-1.74
2019-02-18T00:28:37.873Z,-1.74
2019-02-18T00:31:43.071Z,-1.74
2019-02-18T00:34:48.221Z,-1.75
2019-02-18T00:37:53.417Z,-1.76
2019-02-18T00:40:58.562Z,-1.82
2019-02-18T00:44:03.750Z,-1.86
2019-02-18T00:47:08.875Z,-1.97
2019-02-18T00:50:14.021Z,-2.20
2019-02-18T00:53:19.210Z,-2.17
2019-02-18T00:56:24.375Z,-2.30
2019-02-18T00:59:30.976Z,-2.31
2019-02-18T01:02:36.177Z,-2.25
2019-02-18T01:05:41.304Z,-2.19
2019-02-18T01:08:46.475Z,-2.14
2019-02-18T01:11:51.624Z,-2.17
2019-02-18T01:14:56.982Z,-2.20
2019-02-18T01:18:02.167Z,-2.07
2019-02-18T01:21:07.551Z,-2.13
2019-02-18T01:24:12.713Z,-2.06
2019-02-18T01:27:17.866Z,-2.08
2019-02-18T01:30:23.053Z,-2.09
2019-02-18T01:33:28.230Z,-1.93
2019-02-18T01:36:33.356Z,-1.88
2019-02-18T01:39:38.469Z,-1.88
2019-02-18T01:42:43.676Z,-1.92
2019-02-18T01:45:48.838Z,-1.86
2019-02-18T01:48:53.961Z,-1.82
2019-02-18T01:51:59.107Z,-1.69
2019-02-18T01:55:04.501Z,-1.58
2019-02-18T01:58:09.663Z,-1.60
2019-02-18T02:01:18.432Z,-1.53
2019-02-18T02:04:23.697Z,-1.41
2019-02-18T02:07:28.805Z,-1.39
2019-02-18T02:10:34.155Z,-1.37
2019-02-18T02:13:39.303Z,-1.21
2019-02-18T02:16:44.564Z,-1.13
2019-02-18T02:19:49.749Z,-1.06
2019-02-18T02:22:55.010Z,-1.03
2019-02-18T02:26:00.229Z,-0.93
2019-02-18T02:29:05.436Z,-1.09
2019-02-18T02:32:10.624Z,-1.04
2019-02-18T02:35:15.896Z,-1.06
2019-02-18T02:38:21.018Z,-1.03
2019-02-18T02:41:26.261Z,-0.99
2019-02-18T02:44:31.657Z,-1.12
2019-02-18T02:47:36.828Z,-0.98
2019-02-18T02:50:41.993Z,-0.92
2019-02-18T02:53:47.162Z,-1.05
2019-02-18T02:56:52.335Z,-1.10
2019-02-18T02:59:57.575Z,-1.15
2019-02-18T03:03:02.735Z,-1.14
2019-02-18T03:06:08.003Z,-1.16
2019-02-18T03:09:13.166Z,-1.14
2019-02-18T03:12:18.337Z,-1.14
2019-02-18T03:15:25.022Z,-1.15
2019-02-18T03:18:30.279Z,-1.17
2019-02-18T03:21:35.583Z,-1.05
2019-02-18T03:25:16.277Z,-1.12
2019-02-18T03:28:59.289Z,-1.16
2019-02-18T03:32:04.478Z,-1.11
2019-02-18T03:35:09.640Z,-1.10
2019-02-18T03:38:14.858Z,-1.05
2019-02-18T03:41:20.040Z,-0.93
2019-02-18T03:44:25.317Z,-1.13
2019-02-18T03:47:30.428Z,-1.21
2019-02-18T03:50:35.637Z,-1.24
2019-02-18T03:53:40.783Z,-1.28
2019-02-18T03:56:46.059Z,-1.28
2019-02-18T03:59:51.240Z,-1.41
2019-02-18T04:02:56.408Z,-1.28
2019-02-18T04:06:01.663Z,-1.31
2019-02-18T04:09:07.290Z,-1.43
2019-02-18T04:12:12.490Z,-1.43
2019-02-18T04:15:17.640Z,-1.32
2019-02-18T04:18:22.835Z,-1.39
2019-02-18T04:21:28.056Z,-1.31
2019-02-18T04:24:33.234Z,-1.26
2019-02-18T04:27:38.423Z,-1.17
2019-02-18T04:30:43.663Z,-1.28
2019-02-18T04:33:48.837Z,-1.21
2019-02-18T04:36:54.022Z,-1.17
2019-02-18T04:39:59.148Z,-1.17
2019-02-18T04:43:04.304Z,-1.29
2019-02-18T04:46:09.520Z,-1.30
2019-02-18T04:49:14.703Z,-1.21
2019-02-18T04:52:19.904Z,-1.14
2019-02-18T04:55:25.158Z,-1.09
2019-02-18T04:58:30.375Z,-1.17
2019-02-18T05:01:35.529Z,-1.16
2019-02-18T05:04:40.658Z,-1.12
2019-02-18T05:07:45.848Z,-0.96
2019-02-18T05:10:51.048Z,-1.03
2019-02-18T05:13:56.313Z,-1.11
2019-02-18T05:17:01.552Z,-1.13
2019-02-18T05:20:06.821Z,-1.01
2019-02-18T05:23:11.933Z,-1.06
2019-02-18T05:26:18.200Z,-1.04
2019-02-18T05:29:23.349Z,-1.00
2019-02-18T05:32:28.543Z,-1.00
2019-02-18T05:35:33.651Z,-1.05
2019-02-18T05:38:38.818Z,-1.09
2019-02-18T05:41:43.945Z,-1.18
2019-02-18T05:44:49.150Z,-1.09
2019-02-18T05:47:54.375Z,-1.18
2019-02-18T05:50:59.556Z,-1.21
2019-02-18T05:54:04.641Z,-1.42
2019-02-18T05:57:09.848Z,-1.29
2019-02-18T06:00:15.581Z,-1.40
2019-02-18T06:03:20.680Z,-1.42
2019-02-18T06:06:25.865Z,-1.47
2019-02-18T06:09:31.115Z,-1.49
2019-02-18T06:12:36.295Z,-1.48
2019-02-18T06:15:41.553Z,-1.38
2019-02-18T06:18:46.684Z,-1.42
2019-02-18T06:21:59.040Z,-1.48
2019-02-18T06:25:04.191Z,-1.41
2019-02-18T06:28:09.390Z,-1.55
2019-02-18T06:31:14.497Z,-1.55
2019-02-18T06:34:19.774Z,-1.50
2019-02-18T06:37:24.876Z,-1.39
2019-02-18T06:40:30.069Z,-1.49
2019-02-18T06:43:35.293Z,-1.34
2019-02-18T06:46:59.370Z,-1.47
2019-02-18T06:50:05.012Z,-1.49
2019-02-18T06:53:10.190Z,-1.43
2019-02-18T06:56:17.450Z,-1.27
2019-02-18T06:59:29.443Z,-1.36
2019-02-18T07:02:38.835Z,-1.32
2019-02-18T07:06:04.089Z,-1.28
2019-02-18T07:09:51.229Z,-1.26
2019-02-18T07:12:54.141Z,-1.28
2019-02-18T07:15:59.322Z,-1.04
2019-02-18T07:19:04.464Z,-1.10
2019-02-18T07:22:09.591Z,-1.05
2019-02-18T07:25:14.836Z,-0.90
2019-02-18T07:28:20.183Z,-0.99
2019-02-18T07:31:25.356Z,-1.15
2019-02-18T07:34:30.529Z,-1.26
2019-02-18T07:37:35.686Z,-1.22
2019-02-18T07:40:40.931Z,-1.18
2019-02-18T07:43:46.139Z,-1.08
2019-02-18T07:46:51.337Z,-0.92
2019-02-18T07:49:56.538Z,-0.94
2019-02-18T07:53:01.803Z,-0.77
2019-02-18T07:56:07.083Z,-0.84
2019-02-18T07:59:12.205Z,-0.74
2019-02-18T08:02:17.386Z,-0.84
2019-02-18T08:05:22.529Z,-0.67
2019-02-18T08:08:27.718Z,-0.66
2019-02-18T08:11:32.815Z,-0.78
2019-02-18T08:14:37.971Z,-0.57
2019-02-18T08:17:43.141Z,-0.27
2019-02-18T08:20:48.364Z,-0.57
2019-02-18T08:24:00.166Z,-0.31
2019-02-18T08:27:00.510Z,-0.23
2019-02-18T08:30:06.435Z,-0.48
2019-02-18T08:33:11.641Z,-0.24
2019-02-18T08:36:16.765Z,-0.24
2019-02-18T08:39:21.926Z,-0.14
2019-02-18T08:42:27.041Z,-0.29
2019-02-18T08:45:32.210Z,-0.20
2019-02-18T08:48:37.388Z,0.09
2019-02-18T08:51:42.497Z,-0.17
2019-02-18T08:54:56.199Z,-0.34
2019-02-18T08:57:54.639Z,-0.31
2019-02-18T09:01:02.576Z,-0.18
2019-02-18T09:04:06.772Z,0.12
2019-02-18T09:07:11.995Z,0.28
2019-02-18T09:10:17.139Z,0.67
2019-02-18T09:13:22.278Z,0.73
2019-02-18T09:16:27.487Z,1.14
2019-02-18T09:19:32.600Z,0.89
2019-02-18T09:22:57.986Z,0.71
2019-02-18T09:26:04.198Z,0.87
2019-02-18T09:29:11.788Z,1.50
2019-02-18T09:32:16.889Z,1.32
2019-02-18T09:35:22.122Z,1.05
2019-02-18T09:38:27.235Z,1.30
2019-02-18T09:41:32.430Z,1.30
2019-02-18T09:44:37.583Z,1.21
2019-02-18T09:47:42.702Z,1.45
2019-02-18T09:50:47.827Z,1.59
2019-02-18T09:53:52.958Z,2.08
2019-02-18T09:56:58.176Z,2.03
2019-02-18T10:00:03.457Z,2.21
2019-02-18T10:03:08.862Z,2.36
2019-02-18T10:06:14.076Z,2.52
2019-02-18T10:09:19.163Z,3.10
2019-02-18T10:12:24.280Z,2.54
2019-02-18T10:15:29.451Z,3.09
2019-02-18T10:18:34.670Z,2.75
2019-02-18T10:21:39.840Z,2.82
2019-02-18T10:24:50.663Z,2.65
2019-02-18T10:27:51.913Z,2.74
2019-02-18T10:30:57.160Z,2.99
2019-02-18T10:34:02.263Z,3.09
2019-02-18T10:37:07.444Z,2.89
2019-02-18T10:40:12.735Z,3.16
2019-02-18T10:43:17.923Z,3.04
2019-02-18T10:46:23.029Z,2.94
2019-02-18T10:49:28.279Z,2.87
2019-02-18T10:52:33.481Z,2.99
2019-02-18T10:55:38.589Z,2.98
2019-02-18T10:58:44.827Z,3.51
2019-02-18T11:01:50.019Z,3.75
2019-02-18T11:04:55.174Z,4.04
2019-02-18T11:08:00.442Z,4.13
2019-02-18T11:11:05.534Z,4.19
2019-02-18T11:14:10.685Z,3.99
2019-02-18T11:17:16.148Z,3.64
2019-02-18T11:20:21.243Z,3.93
2019-02-18T11:23:26.457Z,4.11
2019-02-18T11:26:31.627Z,4.30
2019-02-18T11:29:36.845Z,4.39
2019-02-18T11:32:41.967Z,4.60
2019-02-18T11:35:47.163Z,5.21
2019-02-18T11:38:53.598Z,5.61
2019-02-18T11:41:58.845Z,5.45
2019-02-18T11:45:04.180Z,5.84
2019-02-18T11:48:09.408Z,5.86
2019-02-18T11:51:14.564Z,6.10
2019-02-18T11:54:19.775Z,6.45
2019-02-18T11:57:24.918Z,5.98
2019-02-18T12:00:30.082Z,6.32
2019-02-18T12:03:35.228Z,6.72
2019-02-18T12:06:40.368Z,6.98
2019-02-18T12:09:45.566Z,7.09
2019-02-18T12:12:50.639Z,7.18
2019-02-18T12:15:55.811Z,7.60
2019-02-18T12:19:01.117Z,7.98
2019-02-18T12:22:06.350Z,8.14
2019-02-18T12:25:11.883Z,8.05
2019-02-18T12:28:17.465Z,8.42
2019-02-18T12:31:22.627Z,8.87
2019-02-18T12:34:27.872Z,8.93
2019-02-18T12:37:33.222Z,8.75
2019-02-18T12:40:38.332Z,8.76
2019-02-18T12:43:43.614Z,9.17
2019-02-18T12:46:48.836Z,9.72
2019-02-18T12:49:54.118Z,9.44
2019-02-18T12:52:59.344Z,9.48
2019-02-18T12:56:04.478Z,9.57
2019-02-18T12:59:09.724Z,10.02
2019-02-18T13:02:14.985Z,9.97
2019-02-18T13:05:20.185Z,9.61
2019-02-18T13:08:25.359Z,9.59
2019-02-18T13:11:30.538Z,10.05
2019-02-18T13:14:35.716Z,9.75
2019-02-18T13:17:42.739Z,10.20
2019-02-18T13:20:47.806Z,10.21
2019-02-18T13:23:54.768Z,10.44
2019-02-18T13:26:59.881Z,10.44
2019-02-18T13:30:08.382Z,10.70
2019-02-18T13:33:13.667Z,10.78
2019-02-18T13:36:18.843Z,10.77
2019-02-18T13:39:23.972Z,10.72
2019-02-18T13:42:29.173Z,11.11
2019-02-18T13:45:34.388Z,11.12
2019-02-18T13:48:39.618Z,10.85
2019-02-18T13:51:44.803Z,11.11
2019-02-18T13:54:50.371Z,11.14
2019-02-18T13:57:55.487Z,11.47
2019-02-18T14:01:00.662Z,11.49
2019-02-18T14:04:05.797Z,11.49
2019-02-18T14:07:10.924Z,11.51
2019-02-18T14:10:16.100Z,11.63
2019-02-18T14:13:21.243Z,11.59
2019-02-18T14:16:26.416Z,11.77
2019-02-18T14:19:31.498Z,12.16
2019-02-18T14:22:36.666Z,12.01
2019-02-18T14:25:41.842Z,11.80
2019-02-18T14:28:47.008Z,11.87
2019-02-18T14:31:52.234Z,11.90
2019-02-18T14:34:58.098Z,11.94
2019-02-18T14:38:03.241Z,11.86
2019-02-18T14:41:08.703Z,11.87
2019-02-18T14:44:14.275Z,11.83
2019-02-18T14:47:19.394Z,11.77
2019-02-18T14:50:24.576Z,11.64
2019-02-18T14:53:29.763Z,11.69
2019-02-18T14:56:34.830Z,11.51
2019-02-18T14:59:40.020Z,11.45
2019-02-18T15:02:45.247Z,11.36
2019-02-18T15:05:51.280Z,11.18
2019-02-18T15:08:56.451Z,10.96
2019-02-18T15:12:01.644Z,10.90
2019-02-18T15:15:07.186Z,10.63
2019-02-18T15:18:12.395Z,10.37
2019-02-18T15:21:17.541Z,10.18
2019-02-18T15:24:23.354Z,9.91
2019-02-18T15:27:28.509Z,9.69
2019-02-18T15:30:33.703Z,9.72
2019-02-18T15:33:38.838Z,9.75
2019-02-18T15:36:44.013Z,9.72
2019-02-18T15:39:49.201Z,9.68
2019-02-18T15:42:54.425Z,9.63
2019-02-18T15:45:59.549Z,9.60
2019-02-18T15:49:04.696Z,9.51
2019-02-18T15:52:09.901Z,9.49
2019-02-18T15:55:15.181Z,9.37
2019-02-18T15:58:20.338Z,9.23
2019-02-18T16:01:28.596Z,8.99
2019-02-18T16:04:34.080Z,8.56
2019-02-18T16:07:39.231Z,8.26
2019-02-18T16:10:44.385Z,7.92
2019-02-18T16:13:49.506Z,7.90
2019-02-18T16:16:54.693Z,7.78
2019-02-18T16:20:00.314Z,7.65
2019-02-18T16:23:05.420Z,7.40
2019-02-18T16:26:10.602Z,7.29
2019-02-18T16:29:15.814Z,7.10
2019-02-18T16:32:21.029Z,7.09
2019-02-18T16:35:26.244Z,6.69
2019-02-18T16:38:31.516Z,6.46
2019-02-18T16:41:36.640Z,6.38
2019-02-18T16:44:41.855Z,6.21
2019-02-18T16:47:47.046Z,6.20
2019-02-18T16:50:52.207Z,6.02
2019-02-18T16:53:57.584Z,5.73
2019-02-18T16:57:02.710Z,5.64
2019-02-18T17:00:17.206Z,5.72
2019-02-18T17:03:22.453Z,5.57
2019-02-18T17:06:27.646Z,5.48
2019-02-18T17:09:32.884Z,5.32
2019-02-18T17:12:38.043Z,5.15
2019-02-18T17:15:43.509Z,5.02
2019-02-18T17:18:48.680Z,4.92
2019-02-18T17:21:53.792Z,4.83
2019-02-18T17:24:59.171Z,4.66
2019-02-18T17:28:04.371Z,4.56
2019-02-18T17:31:09.554Z,4.40
2019-02-18T17:34:14.698Z,4.22
2019-02-18T17:37:19.958Z,4.25
2019-02-18T17:40:25.485Z,4.17
2019-02-18T17:43:31.634Z,4.18
2019-02-18T17:46:36.850Z,4.08
2019-02-18T17:49:42.012Z,4.37
2019-02-18T17:52:47.457Z,4.28
2019-02-18T17:55:52.686Z,4.01
2019-02-18T17:58:57.834Z,3.89
2019-02-18T18:02:03.053Z,3.70
2019-02-18T18:05:09.106Z,3.45
2019-02-18T18:08:14.344Z,3.48
2019-02-18T18:11:19.612Z,3.60
2019-02-18T18:14:24.964Z,3.40
2019-02-18T18:17:30.315Z,3.34
2019-02-18T18:20:35.512Z,3.33
2019-02-18T18:23:40.637Z,3.18
2019-02-18T18:26:45.785Z,2.99
2019-02-18T18:29:50.989Z,2.87
2019-02-18T18:32:56.185Z,2.78
2019-02-18T18:36:01.418Z,2.70
2019-02-18T18:39:06.998Z,2.66
2019-02-18T18:42:12.832Z,2.82
2019-02-18T18:45:20.246Z,2.92
2019-02-18T18:48:25.455Z,2.83
2019-02-18T18:51:30.640Z,2.83
2019-02-18T18:54:35.850Z,2.89
2019-02-18T18:57:41.006Z,2.74
2019-02-18T19:00:46.197Z,2.54
2019-02-18T19:03:51.496Z,2.40
2019-02-18T19:06:56.816Z,2.34
2019-02-18T19:10:02.013Z,2.13
2019-02-18T19:13:07.262Z,2.21
2019-02-18T19:16:12.767Z,2.14
2019-02-18T19:19:17.936Z,1.97
2019-02-18T19:22:23.151Z,1.87
2019-02-18T19:25:28.298Z,1.78
2019-02-18T19:28:33.543Z,1.94
2019-02-18T19:31:38.700Z,1.70
2019-02-18T19:34:43.922Z,1.63
2019-02-18T19:37:49.209Z,1.55
2019-02-18T19:40:54.531Z,1.48
2019-02-18T19:43:59.710Z,1.52
2019-02-18T19:47:04.960Z,1.37
2019-02-18T19:50:10.249Z,1.38
2019-02-18T19:53:15.475Z,1.43
2019-02-18T19:56:21.135Z,1.38
2019-02-18T19:59:26.398Z,1.55
2019-02-18T20:02:31.630Z,1.45
2019-02-18T20:05:36.993Z,1.45
2019-02-18T20:08:42.150Z,1.59
2019-02-18T20:11:47.476Z,1.53
2019-02-18T20:14:52.638Z,1.64
2019-02-18T20:17:57.859Z,1.61
2019-02-18T20:21:03.051Z,1.67
2019-02-18T20:24:09.323Z,1.37
2019-02-18T20:27:17.265Z,1.14
2019-02-18T20:30:22.444Z,0.97
2019-02-18T20:33:27.578Z,0.91
2019-02-18T20:36:32.718Z,0.76
2019-02-18T20:39:37.926Z,0.96
2019-02-18T20:42:43.131Z,0.85
2019-02-18T20:45:48.273Z,0.89
2019-02-18T20:48:54.530Z,0.96
2019-02-18T20:51:59.659Z,1.27
2019-02-18T20:55:05.252Z,1.21
2019-02-18T20:58:12.019Z,0.90
2019-02-18T21:01:17.291Z,0.72
2019-02-18T21:04:22.493Z,0.59
2019-02-18T21:07:27.647Z,0.65
2019-02-18T21:10:32.826Z,0.55
2019-02-18T21:13:37.999Z,0.38
2019-02-18T21:16:43.212Z,0.71
2019-02-18T21:19:48.402Z,0.75
2019-02-18T21:22:53.744Z,0.52
2019-02-18T21:25:58.846Z,0.31
2019-02-18T21:29:03.978Z,0.21
2019-02-18T21:32:09.117Z,0.18
2019-02-18T21:35:14.382Z,0.09
2019-02-18T21:38:19.839Z,0.06
2019-02-18T21:41:25.054Z,0.11
2019-02-18T21:44:30.260Z,0.19
2019-02-18T21:47:35.393Z,0.06
2019-02-18T21:50:40.611Z,-0.01
2019-02-18T21:53:45.747Z,-0.11
2019-02-18T21:56:50.882Z,-0.10
2019-02-18T21:59:56.031Z,-0.12
2019-02-18T22:03:01.166Z,-0.02
2019-02-18T22:06:06.477Z,-0.03
2019-02-18T22:09:11.585Z,-0.26
2019-02-18T22:12:16.767Z,-0.37
2019-02-18T22:15:21.949Z,-0.12
2019-02-18T22:18:27.201Z,-0.32
2019-02-18T22:21:32.364Z,-0.53
2019-02-18T22:24:37.620Z,-0.65
2019-02-18T22:27:43.207Z,-0.74
2019-02-18T22:30:48.388Z,-0.60
2019-02-18T22:33:53.528Z,-0.73
2019-02-18T22:36:59.119Z,-0.59
2019-02-18T22:40:04.666Z,-0.68
2019-02-18T22:43:09.814Z,-0.77
2019-02-18T22:46:15.497Z,-0.81
2019-02-18T22:49:20.706Z,-0.60
2019-02-18T22:52:25.885Z,-0.62
2019-02-18T22:55:31.294Z,-0.85
2019-02-18T22:58:36.589Z,-0.81
2019-02-18T23:01:42.583Z,-0.83
2019-02-18T23:04:47.907Z,-0.87
2019-02-18T23:07:53.064Z,-0.95
2019-02-18T23:10:58.225Z,-0.95
2019-02-18T23:14:03.380Z,-0.80
2019-02-18T23:17:08.512Z,-0.96
2019-02-18T23:20:13.760Z,-0.92
2019-02-18T23:23:18.876Z,-0.97
2019-02-18T23:26:24.060Z,-0.95
2019-02-18T23:29:29.304Z,-0.80
2019-02-18T23:32:34.454Z,-0.96
2019-02-18T23:35:39.666Z,-1.09
2019-02-18T23:38:44.781Z,-1.09
2019-02-18T23:41:49.950Z,-1.18
2019-02-18T23:44:59.249Z,-1.03
2019-02-18T23:48:03.407Z,-1.09
2019-02-18T23:51:08.622Z,-1.20
2019-02-18T23:54:13.723Z,-1.26
2019-02-18T23:57:18.914Z,-1.39
